Terminal Aerodrome Forecast
Issued by NWS

Home | Current Version | Previous Version | Text Only | Print | Product List | Glossary On
Versions: 1 2 3 4 5 6 7 8 9 10 11 12 13 14 15 16
913
FTUS41 KBTV 031134
TAFMSS
TAF
KMSS 031134Z 0312/0412 00000KT 1/4SM FG VV001
     FM031330 09004KT 2SM BR SCT020 BKN045
     FM031430 09005KT P6SM SCT025 BKN045
     FM031500 05005KT P6SM FEW025 SCT045
     FM040100 VRB03KT P6SM FEW140
     FM041000 00000KT P6SM BKN070=

USA.gov is the U.S. government's official web portal to all federal, state and local government web resources and services.